Arcadia, Kansas
Current Conditions -  °F | °C
As of 8:35 AM on Saturday 22 Nov 2014 (Local Time) from KPTS Reporting Station
Overcast Overcast  
Wind Chill: 14°   Ceiling: 1300
Heat Index: 14°   Visibility: 10mi
Dew Point: 12°   Wind: 10mph
Humidity: 89%   Direction: 200°SSW
Pressure: 30.03"   Gusts: NA
Location:  37.64°N, 94.62°W
Report Text: KPTS 221435Z AUTO 20009KT 10SM OVC013 14/12 A3003 RMK AO2 LTG DSNT SW T01370120
Loading
Personal Weather Stations






























Interactive Weather Map New forecast layout! Learn more

10-Day Weather Forecast

Advertisements
Track Severe Weather on mobile